N2PT KCRQ-KSAN
Flight info
| Callsign | N2PT |
|---|---|
| Flight time | 0h 18m |
| Altitude | VFR/035 |
| Route | |
| Aircraft | C172/L-VGD/C |
Departure
| Time | 2026-04-21 06:30 |
|---|---|
| Airport | McClellan-Palomar Airport (KCRQ) |
Arrival
| Time | 2026-04-21 06:48 |
|---|---|
| Airport | San Diego International Airport (KSAN) |
| Time | Latitude | Longitude | Altitude | Speed | Heading |
|---|---|---|---|---|---|
| 2026-04-21 06:26 | 33.12733 | -117.27679 | 323 ft | 0 kts | 117° |
| 2026-04-21 06:27 | 33.12734 | -117.27670 | 323 ft | 7 kts | 47° |
| 2026-04-21 06:27 | 33.12802 | -117.27656 | 319 ft | 13 kts | 77° |
| 2026-04-21 06:27 | 33.12815 | -117.27561 | 318 ft | 13 kts | 81° |
| 2026-04-21 06:28 | 33.12836 | -117.27434 | 319 ft | 15 kts | 78° |
| 2026-04-21 06:28 | 33.12855 | -117.27319 | 319 ft | 13 kts | 79° |
| 2026-04-21 06:28 | 33.12872 | -117.27278 | 319 ft | 0 kts | 30° |
| 2026-04-21 06:28 | 33.12873 | -117.27278 | 319 ft | 2 kts | 29° |
| 2026-04-21 06:29 | 33.12935 | -117.27280 | 319 ft | 10 kts | 285° |
| 2026-04-21 06:29 | 33.12905 | -117.27500 | 319 ft | 53 kts | 261° |
| 2026-04-21 06:29 | 33.12810 | -117.28079 | 390 ft | 80 kts | 258° |
| 2026-04-21 06:29 | 33.12688 | -117.28773 | 547 ft | 91 kts | 259° |
| 2026-04-21 06:30 | 33.12532 | -117.29530 | 725 ft | 99 kts | 255° |
| 2026-04-21 06:30 | 33.12221 | -117.30246 | 936 ft | 100 kts | 231° |
| 2026-04-21 06:30 | 33.11628 | -117.30644 | 1142 ft | 103 kts | 195° |
| 2026-04-21 06:30 | 33.10892 | -117.30733 | 1275 ft | 110 kts | 175° |
| 2026-04-21 06:31 | 33.10178 | -117.30507 | 1537 ft | 104 kts | 163° |
| 2026-04-21 06:31 | 33.09513 | -117.30196 | 1752 ft | 103 kts | 157° |
| 2026-04-21 06:31 | 33.08901 | -117.29850 | 2045 ft | 95 kts | 155° |
| 2026-04-21 06:31 | 33.08325 | -117.29515 | 2286 ft | 93 kts | 159° |
| 2026-04-21 06:32 | 33.07734 | -117.29208 | 2456 ft | 97 kts | 156° |
| 2026-04-21 06:32 | 33.07138 | -117.28856 | 2704 ft | 92 kts | 153° |
| 2026-04-21 06:32 | 33.06586 | -117.28520 | 2960 ft | 87 kts | 153° |
| 2026-04-21 06:32 | 33.06054 | -117.28185 | 3127 ft | 90 kts | 154° |
| 2026-04-21 06:33 | 33.05487 | -117.27809 | 3261 ft | 96 kts | 154° |
| 2026-04-21 06:33 | 33.04877 | -117.27464 | 3442 ft | 97 kts | 156° |
| 2026-04-21 06:33 | 33.04261 | -117.27072 | 3548 ft | 104 kts | 154° |
| 2026-04-21 06:33 | 33.03593 | -117.26637 | 3573 ft | 112 kts | 153° |
| 2026-04-21 06:34 | 33.02902 | -117.26204 | 3471 ft | 113 kts | 155° |
| 2026-04-21 06:34 | 33.02218 | -117.25809 | 3433 ft | 108 kts | 157° |
| 2026-04-21 06:34 | 33.01553 | -117.25439 | 3473 ft | 100 kts | 158° |
| 2026-04-21 06:34 | 33.00911 | -117.25139 | 3396 ft | 107 kts | 166° |
| 2026-04-21 06:35 | 33.00188 | -117.24947 | 3392 ft | 103 kts | 172° |
| 2026-04-21 06:35 | 32.99471 | -117.24847 | 3325 ft | 106 kts | 179° |
| 2026-04-21 06:35 | 32.98755 | -117.24851 | 3324 ft | 103 kts | 186° |
| 2026-04-21 06:35 | 32.98280 | -117.24855 | 3293 ft | 102 kts | 180° |
| 2026-04-21 06:36 | 32.97578 | -117.24705 | 3237 ft | 105 kts | 168° |
| 2026-04-21 06:36 | 32.96891 | -117.24482 | 3264 ft | 99 kts | 165° |
| 2026-04-21 06:36 | 32.96224 | -117.24156 | 3173 ft | 107 kts | 158° |
| 2026-04-21 06:36 | 32.95514 | -117.23774 | 3017 ft | 114 kts | 157° |
| 2026-04-21 06:37 | 32.94823 | -117.23362 | 3045 ft | 103 kts | 150° |
| 2026-04-21 06:37 | 32.94248 | -117.22941 | 3139 ft | 91 kts | 152° |
| 2026-04-21 06:37 | 32.93700 | -117.22573 | 3128 ft | 95 kts | 152° |
| 2026-04-21 06:37 | 32.93105 | -117.22184 | 3086 ft | 99 kts | 151° |
| 2026-04-21 06:38 | 32.92489 | -117.21821 | 3046 ft | 103 kts | 160° |
| 2026-04-21 06:38 | 32.91813 | -117.21490 | 2979 ft | 106 kts | 157° |
| 2026-04-21 06:38 | 32.91126 | -117.21110 | 2863 ft | 111 kts | 157° |
| 2026-04-21 06:38 | 32.90450 | -117.20753 | 2889 ft | 104 kts | 158° |
| 2026-04-21 06:39 | 32.89811 | -117.20424 | 2981 ft | 96 kts | 154° |
| 2026-04-21 06:39 | 32.89186 | -117.20042 | 3074 ft | 107 kts | 160° |
| 2026-04-21 06:39 | 32.88467 | -117.19650 | 3081 ft | 119 kts | 155° |
| 2026-04-21 06:39 | 32.87771 | -117.19217 | 3110 ft | 107 kts | 152° |
| 2026-04-21 06:40 | 32.87109 | -117.18764 | 2996 ft | 111 kts | 152° |
| 2026-04-21 06:40 | 32.86451 | -117.18370 | 3005 ft | 105 kts | 154° |
| 2026-04-21 06:40 | 32.85825 | -117.17937 | 2926 ft | 109 kts | 149° |
| 2026-04-21 06:40 | 32.85161 | -117.17460 | 2831 ft | 110 kts | 152° |
| 2026-04-21 06:41 | 32.84498 | -117.17053 | 2813 ft | 106 kts | 153° |
| 2026-04-21 06:41 | 32.83841 | -117.16635 | 2754 ft | 106 kts | 155° |
| 2026-04-21 06:41 | 32.83166 | -117.16227 | 2615 ft | 112 kts | 152° |
| 2026-04-21 06:41 | 32.82485 | -117.15777 | 2507 ft | 113 kts | 149° |
| 2026-04-21 06:42 | 32.81854 | -117.15305 | 2470 ft | 110 kts | 147° |
| 2026-04-21 06:42 | 32.81218 | -117.14825 | 2439 ft | 107 kts | 146° |
| 2026-04-21 06:42 | 32.80646 | -117.14345 | 2479 ft | 100 kts | 145° |
| 2026-04-21 06:42 | 32.80041 | -117.13894 | 2439 ft | 100 kts | 152° |
| 2026-04-21 06:43 | 32.79435 | -117.13464 | 2356 ft | 107 kts | 147° |
| 2026-04-21 06:43 | 32.79451 | -117.12902 | 629 ft | 169 kts | 80° |
| 2026-04-21 06:43 | 32.78304 | -117.12378 | 2335 ft | 99 kts | 142° |
| 2026-04-21 06:43 | 32.77702 | -117.11950 | 2298 ft | 100 kts | 153° |
| 2026-04-21 06:44 | 32.77076 | -117.11621 | 2265 ft | 103 kts | 160° |
| 2026-04-21 06:44 | 32.76404 | -117.11337 | 2236 ft | 103 kts | 164° |
| 2026-04-21 06:44 | 32.75691 | -117.11202 | 2139 ft | 109 kts | 177° |
| 2026-04-21 06:44 | 32.74917 | -117.11116 | 2024 ft | 112 kts | 173° |
| 2026-04-21 06:45 | 32.74173 | -117.10992 | 1846 ft | 106 kts | 173° |
| 2026-04-21 06:45 | 32.73444 | -117.10934 | 1579 ft | 100 kts | 180° |
| 2026-04-21 06:45 | 32.72788 | -117.11178 | 1252 ft | 103 kts | 224° |
| 2026-04-21 06:45 | 32.72437 | -117.11891 | 951 ft | 101 kts | 252° |
| 2026-04-21 06:46 | 32.72279 | -117.12653 | 748 ft | 88 kts | 263° |
| 2026-04-21 06:46 | 32.72225 | -117.13331 | 671 ft | 84 kts | 275° |
| 2026-04-21 06:46 | 32.72262 | -117.14044 | 638 ft | 87 kts | 274° |
| 2026-04-21 06:46 | 32.72349 | -117.14751 | 504 ft | 85 kts | 285° |
| 2026-04-21 06:47 | 32.72479 | -117.15429 | 464 ft | 76 kts | 290° |
| 2026-04-21 06:47 | 32.72624 | -117.16008 | 352 ft | 73 kts | 290° |
| 2026-04-21 06:47 | 32.72769 | -117.16570 | 267 ft | 64 kts | 288° |
| 2026-04-21 06:47 | 32.72892 | -117.17105 | 215 ft | 68 kts | 291° |
| 2026-04-21 06:48 | 32.73022 | -117.17635 | 130 ft | 63 kts | 290° |
| 2026-04-21 06:48 | 32.73147 | -117.18129 | 35 ft | 62 kts | 288° |
| 2026-04-21 06:48 | 32.73229 | -117.18416 | 26 ft | 5 kts | 335° |
| 2026-04-21 06:48 | 32.73259 | -117.18432 | 26 ft | 9 kts | 345° |
| 2026-04-21 06:49 | 32.73312 | -117.18422 | 27 ft | 9 kts | 38° |